Time;durP1;ratioP1;P1;durP2;ratioP2;P2;SDS_P1;SDS_P2;PMS_P1;PMS_P2;Temp;Humidity;BMP_temperature;BMP_pressure;BME280_temperature;BME280_humidity;BME280_pressure;Samples;Min_cycle;Max_cycle;Signal;HPM_P1;HPM_P2
2021/11/25 00:00:43;;;;;;;15.45;11.27;;;;;;;6.10;77.36;100658.91;5050670;28;20025;-52
2021/11/25 00:03:08;;;;;;;16.48;10.88;;;;;;;6.09;77.52;100647.53;5050900;28;20441;-52
2021/11/25 00:05:34;;;;;;;14.15;11.45;;;;;;;6.10;78.31;100651.06;5050895;28;20078;-52
2021/11/25 00:08:02;;;;;;;15.95;11.60;;;;;;;6.08;77.58;100647.53;5050636;28;20564;-52
2021/11/25 00:10:27;;;;;;;13.60;11.25;;;;;;;6.08;78.31;100631.81;5050772;28;20019;-52
2021/11/25 00:12:54;;;;;;;16.88;12.15;;;;;;;6.10;78.29;100637.97;5048637;28;20020;-52
2021/11/25 00:15:19;;;;;;;16.17;12.65;;;;;;;6.11;77.06;100637.09;5048455;28;20090;-51
2021/11/25 00:17:45;;;;;;;15.70;11.70;;;;;;;6.10;77.46;100630.97;5032957;28;20025;-52
2021/11/25 00:20:12;;;;;;;16.98;12.00;;;;;;;6.10;78.08;100624.88;5050995;28;20021;-52
2021/11/25 00:22:38;;;;;;;14.43;11.30;;;;;;;6.09;77.28;100623.09;5049067;28;20140;-52
2021/11/25 00:25:04;;;;;;;16.20;11.93;;;;;;;6.09;77.21;100623.09;5048949;28;20028;-52
2021/11/25 00:27:30;;;;;;;17.42;12.90;;;;;;;6.09;77.68;100623.97;5050196;28;20115;-52
2021/11/25 00:29:55;;;;;;;17.10;13.18;;;;;;;6.10;77.72;100622.25;5046576;28;20439;-52
2021/11/25 00:32:20;;;;;;;16.70;11.88;;;;;;;6.09;77.73;100628.31;5047418;28;20024;-52
2021/11/25 00:34:46;;;;;;;16.25;12.02;;;;;;;6.09;77.20;100617.84;5050338;28;20035;-52
2021/11/25 00:37:12;;;;;;;16.05;12.07;;;;;;;6.09;77.79;100620.47;5047626;28;20506;-52
2021/11/25 00:39:37;;;;;;;15.65;12.50;;;;;;;6.09;77.18;100623.09;5050401;28;20017;-52
2021/11/25 00:42:03;;;;;;;17.15;12.30;;;;;;;6.10;76.44;100619.63;5045864;28;20035;-52
2021/11/25 00:44:28;;;;;;;17.52;12.13;;;;;;;6.11;77.05;100619.59;5048204;28;20021;-52
2021/11/25 00:46:53;;;;;;;15.77;12.48;;;;;;;6.08;77.71;100617.00;5050111;28;20024;-52
2021/11/25 00:49:19;;;;;;;16.17;12.85;;;;;;;6.09;77.54;100617.84;5032919;28;20040;-52
2021/11/25 00:51:44;;;;;;;16.73;12.23;;;;;;;6.08;76.92;100614.38;5049287;28;20039;-52
2021/11/25 00:54:09;;;;;;;15.73;11.82;;;;;;;6.07;78.18;100606.50;5049579;28;20350;-51
2021/11/25 00:56:35;;;;;;;19.23;13.43;;;;;;;6.08;78.30;100616.09;5050341;28;20580;-52
2021/11/25 00:59:00;;;;;;;16.17;11.90;;;;;;;6.06;78.91;100610.84;5049903;28;20148;-52
2021/11/25 01:01:26;;;;;;;15.93;12.70;;;;;;;6.06;79.05;100597.75;5029889;28;20092;-52
2021/11/25 01:03:51;;;;;;;17.30;12.15;;;;;;;6.06;78.50;100613.47;5049367;28;20021;-52
2021/11/25 01:06:16;;;;;;;16.20;12.98;;;;;;;6.06;78.77;100597.75;5032831;28;20024;-52
2021/11/25 01:08:42;;;;;;;16.38;12.25;;;;;;;6.05;78.39;100595.13;5049780;28;20017;-52
2021/11/25 01:11:07;;;;;;;14.48;10.77;;;;;;;6.05;79.17;100596.00;5049384;28;20025;-52
2021/11/25 01:13:33;;;;;;;16.35;12.13;;;;;;;6.03;78.79;100588.13;5049229;28;20025;-52
2021/11/25 01:15:59;;;;;;;16.90;11.35;;;;;;;6.05;78.62;100584.66;5049752;28;20036;-52
2021/11/25 01:18:24;;;;;;;15.90;11.85;;;;;;;6.05;78.55;100585.53;5027415;28;20389;-52
2021/11/25 01:20:50;;;;;;;16.48;12.50;;;;;;;6.06;78.55;100586.44;5031134;28;20107;-52
2021/11/25 01:23:24;;;;;;;17.52;12.88;;;;;;;6.05;78.12;100584.66;5049337;28;20033;-52
2021/11/25 01:25:51;;;;;;;15.48;11.98;;;;;;;6.05;78.10;100582.03;5047759;28;20024;-52
2021/11/25 01:28:17;;;;;;;15.85;12.38;;;;;;;6.03;79.25;100577.66;5049962;28;20044;-52
2021/11/25 01:30:46;;;;;;;16.05;12.20;;;;;;;6.03;78.39;100577.66;5042006;28;20043;-52
2021/11/25 01:33:12;;;;;;;16.23;12.60;;;;;;;6.03;78.93;100575.06;5045258;28;20037;-52
2021/11/25 01:35:38;;;;;;;14.15;11.52;;;;;;;6.03;77.88;100580.28;5049309;28;20025;-52
2021/11/25 01:38:06;;;;;;;16.08;12.18;;;;;;;6.05;78.67;100574.19;5049447;28;20021;-52
2021/11/25 01:40:31;;;;;;;19.92;13.25;;;;;;;6.03;79.00;100567.19;5049136;28;20028;-52
2021/11/25 01:42:56;;;;;;;16.55;13.20;;;;;;;6.00;78.88;100561.91;5047154;28;20025;-52
2021/11/25 01:45:24;;;;;;;16.23;11.98;;;;;;;5.98;78.11;100562.75;5048933;28;20055;-52
2021/11/25 01:47:50;;;;;;;16.90;13.15;;;;;;;6.00;77.71;100567.13;5049328;28;20052;-52
2021/11/25 01:50:17;;;;;;;14.80;11.73;;;;;;;6.00;78.08;100556.66;5048566;28;20041;-52
2021/11/25 01:52:43;;;;;;;15.82;11.93;;;;;;;6.00;78.90;100561.91;5048444;28;20471;-52
2021/11/25 01:55:10;;;;;;;16.85;12.35;;;;;;;5.99;79.05;100548.78;5048915;28;20036;-52
2021/11/25 01:57:35;;;;;;;15.32;12.02;;;;;;;5.98;77.92;100553.16;5029556;28;20688;-52
2021/11/25 02:00:04;;;;;;;14.75;11.85;;;;;;;5.98;79.04;100547.94;5048950;28;20075;-52
2021/11/25 02:02:29;;;;;;;14.70;11.88;;;;;;;5.97;77.60;100546.16;5048445;28;20468;-52
2021/11/25 02:04:54;;;;;;;15.15;11.65;;;;;;;5.96;78.01;100528.69;5030240;28;20108;-51
2021/11/25 02:07:20;;;;;;;15.55;12.23;;;;;;;5.97;77.32;100540.06;5048935;28;20035;-52
2021/11/25 02:09:45;;;;;;;15.25;11.35;;;;;;;5.97;77.77;100526.97;5046446;28;20043;-52
2021/11/25 02:12:11;;;;;;;15.98;11.40;;;;;;;5.96;77.84;100533.94;5048455;28;20040;-52
2021/11/25 02:14:38;;;;;;;14.60;11.52;;;;;;;5.93;77.95;100523.44;5046054;28;20028;-52
2021/11/25 02:17:03;;;;;;;16.45;11.82;;;;;;;5.94;77.20;100519.97;5031734;28;20024;-52
2021/11/25 02:19:29;;;;;;;17.35;12.10;;;;;;;5.95;77.05;100528.69;5048335;28;20025;-52
2021/11/25 02:21:54;;;;;;;16.17;12.20;;;;;;;5.95;77.24;100521.72;5048098;28;20021;-52
2021/11/25 02:24:20;;;;;;;15.25;12.43;;;;;;;5.95;77.86;100524.34;5048657;28;20499;-52
2021/11/25 02:26:45;;;;;;;15.40;11.63;;;;;;;5.92;76.75;100513.84;5046343;28;20798;-52
2021/11/25 02:29:11;;;;;;;14.23;11.75;;;;;;;5.93;77.21;100510.34;5048759;28;20036;-52
2021/11/25 02:31:36;;;;;;;14.48;12.20;;;;;;;5.93;77.45;100505.13;5033524;28;20013;-52
2021/11/25 02:34:01;;;;;;;15.63;11.90;;;;;;;5.93;77.48;100497.25;5052688;28;20029;-52
2021/11/25 02:36:27;;;;;;;17.05;11.98;;;;;;;5.93;77.14;100491.16;5052372;28;20044;-52
2021/11/25 02:38:53;;;;;;;16.88;12.38;;;;;;;5.92;77.04;100495.50;5049224;28;20619;-52
2021/11/25 02:41:18;;;;;;;14.45;12.02;;;;;;;5.93;76.48;100501.63;5029610;28;20396;-52
2021/11/25 02:43:43;;;;;;;12.85;10.77;;;;;;;5.90;77.87;100498.13;5052387;28;20025;-52
2021/11/25 02:46:13;;;;;;;12.52;10.77;;;;;;;5.90;77.02;100489.38;5052262;28;20106;-52
2021/11/25 02:48:48;;;;;;;15.30;12.15;;;;;;;5.90;77.15;100481.53;5048651;28;20025;-52
2021/11/25 02:51:16;;;;;;;14.30;11.10;;;;;;;5.91;77.40;100493.78;5031795;28;20531;-52
2021/11/25 02:53:42;;;;;;;14.18;11.90;;;;;;;5.90;77.00;100492.88;5052003;28;20027;-51
2021/11/25 02:56:22;;;;;;;15.23;11.50;;;;;;;5.91;77.19;100496.38;5049633;28;20021;-54
2021/11/25 02:58:49;;;;;;;14.43;11.82;;;;;;;5.90;77.56;100492.00;5030466;28;20028;-54
2021/11/25 03:01:29;;;;;;;16.42;12.32;;;;;;;5.90;76.59;100494.63;5049166;28;20021;-52
2021/11/25 03:03:55;;;;;;;15.38;11.60;;;;;;;5.89;77.80;100487.63;5051560;28;20032;-52
2021/11/25 03:06:20;;;;;;;15.65;12.45;;;;;;;5.90;76.58;100484.13;5052067;28;20500;-51
2021/11/25 03:08:46;;;;;;;14.57;10.93;;;;;;;5.89;76.98;100482.41;5052513;28;20029;-51
2021/11/25 03:11:14;;;;;;;14.80;11.00;;;;;;;5.89;76.46;100479.78;5051924;28;20052;-51
2021/11/25 03:13:44;;;;;;;15.60;12.13;;;;;;;5.89;76.74;100474.53;5051693;28;20031;-52
2021/11/25 03:16:11;;;;;;;16.08;11.88;;;;;;;5.89;76.33;100469.31;5052186;28;20100;-51
2021/11/25 03:18:37;;;;;;;14.77;11.82;;;;;;;5.87;76.44;100456.22;5050905;28;20033;-51
2021/11/25 03:21:03;;;;;;;14.50;10.90;;;;;;;5.87;76.65;100455.34;5051458;28;20027;-52
2021/11/25 03:23:30;;;;;;;15.80;11.90;;;;;;;5.87;76.35;100455.34;5051524;28;20107;-51
2021/11/25 03:25:56;;;;;;;14.80;12.48;;;;;;;5.87;77.57;100452.72;5050046;28;20055;-52
2021/11/25 03:28:22;;;;;;;15.05;11.57;;;;;;;5.87;76.84;100453.59;5033438;28;20490;-52
2021/11/25 03:30:54;;;;;;;15.75;11.68;;;;;;;5.87;77.15;100447.50;5052147;28;20104;-51
2021/11/25 03:33:20;;;;;;;16.02;12.07;;;;;;;5.86;76.70;100443.09;5049048;28;20136;-51
2021/11/25 03:35:46;;;;;;;14.00;11.25;;;;;;;5.86;77.63;100437.88;5051321;28;20028;-52
2021/11/25 03:38:11;;;;;;;16.17;12.40;;;;;;;5.86;76.55;100443.09;5051151;28;20040;-51
2021/11/25 03:40:36;;;;;;;15.32;11.65;;;;;;;5.85;77.65;100437.00;5050281;28;20553;-51
2021/11/25 03:43:02;;;;;;;16.52;11.43;;;;;;;5.86;77.50;100433.53;5050700;28;21427;-52
2021/11/25 03:45:27;;;;;;;16.48;12.30;;;;;;;5.85;77.24;100423.03;5051529;28;20031;-51
2021/11/25 03:47:53;;;;;;;15.82;12.23;;;;;;;5.83;77.16;100427.41;5048159;28;20383;-51
2021/11/25 03:50:18;;;;;;;15.35;11.52;;;;;;;5.84;77.20;100424.78;5051302;28;20068;-52
2021/11/25 03:52:43;;;;;;;15.30;12.07;;;;;;;5.83;76.69;100427.41;5050887;28;20021;-51
2021/11/25 03:55:11;;;;;;;14.95;12.40;;;;;;;5.83;76.84;100432.63;5051100;28;20024;-52
2021/11/25 03:57:36;;;;;;;16.30;12.70;;;;;;;5.84;77.15;100431.75;5088969;22;20559;-52
2021/11/25 04:00:04;;;;;;;16.95;11.70;;;;;;;5.82;76.78;100425.63;5083172;28;20032;-50
2021/11/25 04:02:30;;;;;;;15.98;11.88;;;;;;;5.83;77.26;100427.41;5082712;28;20028;-51
2021/11/25 04:04:55;;;;;;;14.65;11.98;;;;;;;5.81;76.97;100430.00;5069847;28;20034;-51
2021/11/25 04:07:20;;;;;;;16.42;11.73;;;;;;;5.84;77.66;100429.16;5091107;28;20020;-52
2021/11/25 04:09:46;;;;;;;15.00;11.77;;;;;;;5.83;77.33;100435.25;5085856;28;20039;-51
2021/11/25 04:12:11;;;;;;;14.98;11.68;;;;;;;5.82;76.62;100426.53;5089801;28;20425;-49
2021/11/25 04:14:36;;;;;;;16.95;11.98;;;;;;;5.82;76.61;100425.63;5088032;28;20108;-50
2021/11/25 04:17:02;;;;;;;15.82;12.18;;;;;;;5.82;77.34;100420.41;5088487;28;20024;-52
2021/11/25 04:19:27;;;;;;;16.08;12.27;;;;;;;5.81;77.16;100413.41;5090167;28;20032;-49
2021/11/25 04:21:53;;;;;;;15.00;11.95;;;;;;;5.82;76.83;100412.53;5088091;28;20483;-51
2021/11/25 04:24:18;;;;;;;16.17;11.73;;;;;;;5.81;76.64;100411.69;5089525;28;20099;-49
2021/11/25 04:26:44;;;;;;;15.38;11.32;;;;;;;5.81;76.31;100413.41;5086855;28;20024;-51
2021/11/25 04:29:10;;;;;;;13.93;11.20;;;;;;;5.78;76.59;100407.28;5069200;28;20029;-49
2021/11/25 04:37:03;;;;;;;16.38;12.40;;;;;;;5.78;76.79;100394.19;5086406;28;20031;-49
2021/11/25 04:39:28;;;;;;;15.65;12.68;;;;;;;5.78;76.85;100388.97;5085198;28;20028;-51
2021/11/25 04:41:54;;;;;;;16.83;12.23;;;;;;;5.77;77.66;100382.00;5083856;28;20024;-52
2021/11/25 04:44:20;;;;;;;16.08;12.40;;;;;;;5.77;77.25;100384.59;5087172;28;20036;-52
2021/11/25 04:46:45;;;;;;;16.13;11.57;;;;;;;5.77;77.03;100384.59;5066297;28;20444;-50
2021/11/25 04:49:11;;;;;;;15.32;11.90;;;;;;;5.77;77.30;100382.00;5085298;28;20242;-51
2021/11/25 04:51:36;;;;;;;13.77;11.13;;;;;;;5.76;77.06;100377.63;5069240;28;20370;-52
2021/11/25 04:54:02;;;;;;;17.15;12.35;;;;;;;5.76;77.16;100377.63;5087942;28;20537;-50
2021/11/25 04:56:27;;;;;;;14.95;12.10;;;;;;;5.77;76.61;100378.50;5084679;28;20479;-52
2021/11/25 04:58:52;;;;;;;19.17;13.52;;;;;;;5.75;77.06;100373.28;5084558;28;20043;-49
2021/11/25 05:01:17;;;;;;;16.40;12.00;;;;;;;5.75;77.61;100373.28;5083854;28;20024;-50
2021/11/25 05:03:43;;;;;;;16.95;12.38;;;;;;;5.76;76.31;100369.78;5082876;28;20028;-52
2021/11/25 05:06:08;;;;;;;17.23;12.35;;;;;;;5.76;77.01;100366.28;5072025;28;20077;-49
2021/11/25 05:08:34;;;;;;;16.50;11.88;;;;;;;5.75;76.91;100362.81;5087683;28;20701;-49
2021/11/25 05:10:59;;;;;;;14.95;12.25;;;;;;;5.75;76.83;100356.69;5086385;28;20407;-51
2021/11/25 05:13:25;;;;;;;16.63;12.85;;;;;;;5.76;77.44;100359.31;5086211;28;20123;-52
2021/11/25 05:15:50;;;;;;;16.50;12.27;;;;;;;5.75;77.25;100349.72;5064903;28;21036;-50
2021/11/25 05:18:15;;;;;;;15.82;11.70;;;;;;;5.75;76.96;100356.69;5085627;28;20024;-51
2021/11/25 05:20:41;;;;;;;16.70;12.73;;;;;;;5.75;77.26;100349.72;5068063;28;20100;-50
2021/11/25 05:23:06;;;;;;;16.83;12.45;;;;;;;5.75;77.07;100367.16;5088256;28;21092;-49
2021/11/25 05:25:32;;;;;;;16.02;12.27;;;;;;;5.74;77.09;100354.94;5067421;28;20514;-51
2021/11/25 05:27:57;;;;;;;14.13;11.50;;;;;;;5.72;76.97;100357.53;5087281;28;20028;-49
2021/11/25 05:30:23;;;;;;;17.38;12.63;;;;;;;5.73;76.87;100347.94;5083238;28;20028;-50
2021/11/25 05:32:48;;;;;;;18.35;12.75;;;;;;;5.73;77.35;100343.59;5085547;28;20999;-52
2021/11/25 05:35:15;;;;;;;17.00;12.23;;;;;;;5.73;77.08;100347.94;5084056;28;20037;-49
2021/11/25 05:37:41;;;;;;;18.50;12.63;;;;;;;5.72;77.38;100351.44;5082446;28;20483;-51
2021/11/25 05:40:12;;;;;;;15.75;11.63;;;;;;;5.73;77.52;100346.19;5084043;28;20356;-53
2021/11/25 05:42:37;;;;;;;15.95;12.05;;;;;;;5.72;77.34;100352.31;5084920;28;20031;-51
2021/11/25 05:45:08;;;;;;;16.52;12.10;;;;;;;5.72;77.21;100346.19;5085770;28;20059;-55
2021/11/25 05:47:34;;;;;;;16.65;12.07;;;;;;;5.72;77.09;100340.97;5087051;28;20055;-51
2021/11/25 05:50:04;;;;;;;18.00;13.40;;;;;;;5.73;78.29;100345.31;5085617;28;20430;-50
2021/11/25 05:52:29;;;;;;;16.30;12.63;;;;;;;5.71;76.72;100340.09;5067259;28;20028;-50
2021/11/25 05:54:55;;;;;;;19.27;13.77;;;;;;;5.72;77.30;100339.22;5086499;28;20036;-50
2021/11/25 05:57:20;;;;;;;18.23;13.07;;;;;;;5.71;77.17;100340.09;5087375;28;20024;-50
2021/11/25 05:59:45;;;;;;;17.58;13.88;;;;;;;5.72;77.50;100339.22;5063512;28;20398;-52
2021/11/25 06:02:11;;;;;;;17.13;12.80;;;;;;;5.71;77.80;100336.59;5084416;28;20628;-51
2021/11/25 06:04:36;;;;;;;17.52;12.93;;;;;;;5.70;77.64;100333.09;5084639;28;20028;-51
2021/11/25 06:07:02;;;;;;;15.40;12.38;;;;;;;5.71;77.89;100328.75;5082290;28;20032;-49
2021/11/25 06:09:27;;;;;;;18.88;12.43;;;;;;;5.71;77.78;100334.88;5084415;28;20536;-54
2021/11/25 06:11:53;;;;;;;17.58;12.93;;;;;;;5.70;77.69;100327.84;5086249;28;20024;-53
2021/11/25 06:14:18;;;;;;;15.73;12.60;;;;;;;5.69;76.83;100326.13;5087446;28;20027;-50
2021/11/25 06:16:43;;;;;;;16.17;12.68;;;;;;;5.71;77.98;100321.78;5087600;28;20020;-51
2021/11/25 06:19:09;;;;;;;16.80;12.35;;;;;;;5.67;78.00;100306.91;5086554;28;20440;-51
2021/11/25 06:21:34;;;;;;;15.07;11.75;;;;;;;5.70;78.15;100314.78;5066239;28;20137;-50
2021/11/25 06:23:59;;;;;;;19.60;13.27;;;;;;;5.69;77.61;100313.03;5088650;28;20024;-49
2021/11/25 06:26:25;;;;;;;16.33;11.57;;;;;;;5.69;77.60;100310.41;5088428;28;20022;-49
2021/11/25 06:28:51;;;;;;;16.95;12.27;;;;;;;5.69;77.36;100310.41;5065946;28;20120;-52
2021/11/25 06:31:17;;;;;;;16.80;12.27;;;;;;;5.68;78.28;100319.16;5083546;28;20141;-50
2021/11/25 06:33:42;;;;;;;15.73;12.38;;;;;;;5.68;77.22;100315.63;5086855;28;20482;-51
2021/11/25 06:36:07;;;;;;;16.83;12.18;;;;;;;5.67;77.44;100326.97;5065645;28;20028;-52
2021/11/25 06:38:33;;;;;;;17.85;12.43;;;;;;;5.67;77.82;100317.38;5065418;28;20111;-50
2021/11/25 06:40:58;;;;;;;15.77;12.00;;;;;;;5.68;77.29;100326.09;5066262;28;20063;-50
2021/11/25 06:43:26;;;;;;;16.15;12.50;;;;;;;5.68;78.45;100333.97;5086059;28;20031;-50
2021/11/25 06:45:51;;;;;;;16.30;12.40;;;;;;;5.68;77.27;100333.97;5084633;28;20057;-50
2021/11/25 06:48:17;;;;;;;16.45;12.23;;;;;;;5.67;77.77;100322.59;5066472;28;20020;-49
2021/11/25 06:50:42;;;;;;;15.98;11.85;;;;;;;5.68;77.49;100334.84;5083173;28;20023;-50
2021/11/25 06:53:07;;;;;;;16.38;11.70;;;;;;;5.67;77.82;100332.22;5086787;28;20107;-50
2021/11/25 06:55:33;;;;;;;16.98;12.93;;;;;;;5.67;76.89;100335.69;5083076;28;20036;-50
2021/11/25 06:57:58;;;;;;;18.90;13.85;;;;;;;5.68;77.76;100328.72;5086726;28;20024;-49
2021/11/25 07:00:26;;;;;;;16.05;12.45;;;;;;;5.67;77.68;100319.13;5066830;28;20031;-50
2021/11/25 07:02:54;;;;;;;15.02;11.82;;;;;;;5.67;78.03;100321.75;5082182;28;20024;-51
2021/11/25 07:05:21;;;;;;;16.17;12.68;;;;;;;5.67;77.68;100326.97;5087801;28;20024;-49
2021/11/25 07:07:47;;;;;;;16.15;12.75;;;;;;;5.65;77.27;100325.25;5063992;28;20038;-50
2021/11/25 07:10:13;;;;;;;16.90;12.15;;;;;;;5.65;77.01;100326.97;5087850;28;20028;-51
2021/11/25 07:12:39;;;;;;;17.52;13.40;;;;;;;5.64;77.25;100318.22;5082064;28;20020;-50
2021/11/25 07:15:07;;;;;;;15.95;12.73;;;;;;;5.65;78.00;100325.25;5065880;28;20016;-53
2021/11/25 07:17:33;;;;;;;16.33;12.18;;;;;;;5.65;77.80;100319.13;5083601;28;20020;-51
2021/11/25 07:19:58;;;;;;;16.95;12.20;;;;;;;5.66;78.18;100320.88;5082405;28;20035;-50
2021/11/25 07:22:25;;;;;;;16.90;12.25;;;;;;;5.65;77.26;100313.88;5085810;28;20135;-51
2021/11/25 07:24:51;;;;;;;15.82;12.25;;;;;;;5.68;76.89;100307.78;5056967;28;20016;-49
2021/11/25 07:27:16;;;;;;;15.57;12.40;;;;;;;5.67;77.20;100306.06;5089990;28;20114;-51
2021/11/25 07:29:41;;;;;;;16.30;11.60;;;;;;;5.66;78.10;100315.63;5087415;28;20028;-51
2021/11/25 07:32:07;;;;;;;16.58;12.27;;;;;;;5.66;77.26;100320.88;5089170;28;20028;-52
2021/11/25 07:34:32;;;;;;;15.65;12.07;;;;;;;5.66;78.21;100310.41;5089785;28;20395;-52
2021/11/25 07:36:59;;;;;;;16.60;11.93;;;;;;;5.64;77.34;100305.16;5085726;28;20094;-50
2021/11/25 07:39:24;;;;;;;15.90;11.70;;;;;;;5.65;77.22;100312.16;5054628;28;20020;-50
2021/11/25 07:41:49;;;;;;;17.20;12.70;;;;;;;5.66;77.23;100307.78;5087061;28;20037;-55
2021/11/25 07:44:14;;;;;;;17.20;12.98;;;;;;;5.64;77.21;100314.75;5089833;28;20053;-51
2021/11/25 07:46:40;;;;;;;17.30;12.13;;;;;;;5.63;77.63;100306.03;5088810;28;20478;-50
2021/11/25 07:49:05;;;;;;;16.70;12.50;;;;;;;5.65;77.09;100293.84;5069883;28;20027;-52
2021/11/25 07:51:31;;;;;;;16.38;12.15;;;;;;;5.65;77.59;100292.97;5085952;28;20020;-56
2021/11/25 07:53:57;;;;;;;17.05;12.18;;;;;;;5.66;76.94;100297.31;5085621;28;20028;-51
2021/11/25 07:56:23;;;;;;;16.77;11.32;;;;;;;5.66;77.21;100294.69;5088180;28;20038;-50
2021/11/25 07:58:49;;;;;;;15.82;11.80;;;;;;;5.66;77.98;100297.31;5072308;28;20033;-50
2021/11/25 08:01:14;;;;;;;16.13;12.48;;;;;;;5.65;77.26;100283.38;5082881;28;20035;-51
2021/11/25 08:03:39;;;;;;;16.10;12.48;;;;;;;5.64;77.71;100283.38;5087564;28;20024;-52
2021/11/25 08:06:05;;;;;;;16.00;11.88;;;;;;;5.65;77.23;100290.34;5070820;28;20386;-50
2021/11/25 08:08:30;;;;;;;16.50;12.32;;;;;;;5.64;77.41;100291.22;5086995;28;20020;-52
2021/11/25 08:10:57;;;;;;;17.50;12.68;;;;;;;5.63;78.00;100289.44;5066584;28;20464;-51
2021/11/25 08:13:22;;;;;;;17.35;12.90;;;;;;;5.61;77.70;100292.06;5086717;28;20412;-49
2021/11/25 08:15:47;;;;;;;15.57;12.23;;;;;;;5.63;77.69;100276.34;5067136;28;20034;-51
2021/11/25 08:18:13;;;;;;;17.35;12.80;;;;;;;5.63;77.54;100286.81;5088234;28;20123;-51
2021/11/25 08:20:38;;;;;;;16.10;11.68;;;;;;;5.64;76.98;100288.59;5081379;28;20234;-52
2021/11/25 08:23:03;;;;;;;15.95;11.63;;;;;;;5.63;77.61;100284.22;5065756;28;20020;-50
2021/11/25 08:25:29;;;;;;;15.00;11.52;;;;;;;5.63;77.83;100292.06;5071316;28;20147;-52
2021/11/25 08:27:56;;;;;;;16.15;12.57;;;;;;;5.63;77.29;100278.97;5087426;28;20057;-50
2021/11/25 08:30:23;;;;;;;15.48;11.70;;;;;;;5.63;77.70;100277.25;5085788;28;20020;-49
2021/11/25 08:32:48;;;;;;;15.77;12.25;;;;;;;5.64;76.86;100276.38;5086937;28;20024;-50
2021/11/25 08:35:14;;;;;;;15.57;12.18;;;;;;;5.63;77.04;100266.78;5086854;28;20085;-51
2021/11/25 08:37:40;;;;;;;17.02;11.95;;;;;;;5.65;76.60;100261.56;5086779;28;20030;-49
2021/11/25 08:40:07;;;;;;;15.93;12.52;;;;;;;5.64;76.56;100250.22;5089714;28;20591;-50
2021/11/25 08:42:32;;;;;;;16.83;12.85;;;;;;;5.65;76.89;100235.41;5070051;28;20028;-56
2021/11/25 08:44:58;;;;;;;18.58;13.15;;;;;;;5.65;76.58;100246.75;5068371;28;20020;-52
2021/11/25 08:47:23;;;;;;;15.40;11.98;;;;;;;5.66;76.74;100252.81;5089909;28;20031;-51
2021/11/25 08:49:49;;;;;;;15.90;12.02;;;;;;;5.64;76.86;100259.81;5065559;28;20020;-50
2021/11/25 08:52:14;;;;;;;17.52;12.18;;;;;;;5.64;76.32;100249.34;5085705;28;20031;-51
2021/11/25 08:54:39;;;;;;;17.27;12.50;;;;;;;5.63;76.90;100258.94;5089381;28;20020;-50
2021/11/25 08:57:05;;;;;;;17.65;12.23;;;;;;;5.63;76.98;100253.69;5082376;28;20494;-49
2021/11/25 08:59:30;;;;;;;15.07;11.95;;;;;;;5.63;76.99;100252.81;5088161;28;20442;-51
2021/11/25 09:01:55;;;;;;;17.65;12.93;;;;;;;5.63;76.62;100242.34;5065997;28;20069;-51
2021/11/25 09:04:21;;;;;;;17.13;11.77;;;;;;;5.63;76.33;100237.09;5088389;28;20031;-50
2021/11/25 09:06:46;;;;;;;18.85;13.30;;;;;;;5.61;77.20;100233.63;5085325;28;20034;-50
2021/11/25 09:09:12;;;;;;;17.25;11.80;;;;;;;5.62;77.08;100236.25;5069920;28;20034;-49
2021/11/25 09:11:37;;;;;;;18.45;12.52;;;;;;;5.61;76.45;100239.72;5085321;28;20016;-51
2021/11/25 09:14:04;;;;;;;17.10;13.07;;;;;;;5.63;76.45;100237.09;5067702;28;20024;-50
2021/11/25 09:16:29;;;;;;;17.73;12.48;;;;;;;5.62;76.42;100235.38;5087662;28;20019;-51
2021/11/25 09:18:55;;;;;;;18.35;13.50;;;;;;;5.61;76.49;100225.78;5070481;28;20016;-51
2021/11/25 09:21:23;;;;;;;19.88;13.70;;;;;;;5.62;76.95;100241.50;5068809;28;20034;-53
2021/11/25 09:23:49;;;;;;;15.80;12.63;;;;;;;5.62;76.98;100240.59;5084720;28;20027;-49
2021/11/25 09:26:16;;;;;;;20.77;13.63;;;;;;;5.60;76.68;100243.22;5087157;28;20387;-51
2021/11/25 09:28:41;;;;;;;18.50;13.20;;;;;;;5.62;76.70;100248.47;5064581;28;20016;-50
2021/11/25 09:31:13;;;;;;;15.73;12.15;;;;;;;5.61;77.14;100254.56;5066387;28;20461;-52
2021/11/25 09:33:38;;;;;;;18.05;13.52;;;;;;;5.61;76.26;100249.34;5085335;28;20050;-51
2021/11/25 09:36:04;;;;;;;17.88;12.80;;;;;;;5.60;76.50;100232.75;5086967;28;21340;-51
2021/11/25 09:38:29;;;;;;;18.45;13.25;;;;;;;5.60;76.56;100237.13;5085790;28;20032;-50
2021/11/25 09:40:54;;;;;;;17.95;13.48;;;;;;;5.60;76.67;100244.97;5084795;28;20480;-50
2021/11/25 09:43:25;;;;;;;18.05;12.50;;;;;;;5.59;76.42;100248.44;5065836;28;20027;-52
2021/11/25 09:45:50;;;;;;;18.58;13.07;;;;;;;5.59;76.95;100251.94;5088344;28;20118;-50
2021/11/25 09:48:16;;;;;;;18.00;12.45;;;;;;;5.60;77.07;100239.75;5085797;28;20563;-52
2021/11/25 09:50:44;;;;;;;16.70;12.73;;;;;;;5.59;77.09;100235.34;5085261;28;20552;-51
2021/11/25 09:53:12;;;;;;;17.60;12.52;;;;;;;5.60;76.44;100237.13;5083079;28;20402;-50
2021/11/25 09:55:40;;;;;;;17.15;12.13;;;;;;;5.59;76.91;100240.59;5063156;28;20162;-49
2021/11/25 09:58:05;;;;;;;18.75;12.70;;;;;;;5.59;76.91;100231.00;5083751;28;20429;-50
2021/11/25 10:00:32;;;;;;;20.80;13.00;;;;;;;5.58;76.49;100224.03;5064788;28;20032;-51
2021/11/25 10:02:58;;;;;;;17.30;12.32;;;;;;;5.58;77.24;100223.16;5082108;28;20115;-51
2021/11/25 10:05:24;;;;;;;16.30;12.05;;;;;;;5.56;77.45;100203.94;5051036;28;20110;-50
2021/11/25 10:07:49;;;;;;;17.75;12.70;;;;;;;5.57;76.14;100203.94;5083674;28;20039;-51
2021/11/25 10:10:28;;;;;;;18.27;13.00;;;;;;;5.58;76.96;100210.94;5065569;28;20050;-50
2021/11/25 10:13:14;;;;;;;17.75;12.13;;;;;;;5.59;76.41;100224.88;5063586;28;20024;-53
2021/11/25 10:15:41;;;;;;;17.10;12.15;;;;;;;5.58;77.21;100217.91;5065563;28;20568;-50
2021/11/25 10:18:18;;;;;;;17.02;12.07;;;;;;;5.57;76.69;100205.72;5065692;28;20761;-50
2021/11/25 10:20:46;;;;;;;17.10;12.18;;;;;;;5.57;76.86;100205.72;5077382;28;20025;-49
2021/11/25 10:23:21;;;;;;;17.70;12.48;;;;;;;5.57;76.71;100200.47;5079738;28;20123;-51
2021/11/25 10:25:57;;;;;;;16.92;12.05;;;;;;;5.57;76.77;100192.63;5084152;28;20016;-50
2021/11/25 10:28:24;;;;;;;19.77;13.00;;;;;;;5.57;77.15;100198.72;5083208;28;20024;-52
2021/11/25 10:30:52;;;;;;;18.02;12.10;;;;;;;5.55;76.94;100190.00;5082302;28;20041;-52
2021/11/25 10:33:58;;;;;;;16.35;11.98;;;;;;;5.57;76.75;100184.78;5065109;28;20150;-50
2021/11/25 10:36:31;;;;;;;18.10;13.10;;;;;;;5.55;77.14;100176.03;5084260;28;20050;-50
2021/11/25 10:39:13;;;;;;;17.27;12.68;;;;;;;5.54;76.17;100171.69;5081782;28;20031;-52
2021/11/25 10:41:41;;;;;;;19.83;13.05;;;;;;;5.55;76.83;100176.94;5085478;28;20709;-50
2021/11/25 10:44:06;;;;;;;17.45;12.48;;;;;;;5.55;76.85;100181.28;5088960;28;20043;-50
2021/11/25 10:46:47;;;;;;;19.50;12.70;;;;;;;5.56;76.99;100189.13;5084620;28;20475;-50
2021/11/25 10:49:13;;;;;;;17.83;13.77;;;;;;;5.54;76.53;100184.75;5086960;28;20653;-51
2021/11/25 10:51:40;;;;;;;17.17;12.60;;;;;;;5.54;77.35;100185.66;5086177;28;20020;-51
2021/11/25 10:54:14;;;;;;;19.23;14.02;;;;;;;5.56;76.11;100189.13;5087103;28;20035;-49
2021/11/25 10:56:45;;;;;;;18.52;14.32;;;;;;;5.55;76.63;100186.50;5090677;28;20046;-50
2021/11/25 10:59:14;;;;;;;17.27;12.45;;;;;;;5.55;77.23;100187.38;5071014;28;20032;-51
2021/11/25 11:01:43;;;;;;;19.17;13.45;;;;;;;5.54;77.21;100193.50;5090068;28;20504;-49
2021/11/25 11:04:09;;;;;;;18.63;13.45;;;;;;;5.54;76.66;100179.53;5086341;28;20028;-54
2021/11/25 11:06:36;;;;;;;20.08;14.27;;;;;;;5.54;76.65;100185.66;5090383;28;20020;-54
2021/11/25 11:09:04;;;;;;;20.63;14.02;;;;;;;5.55;76.93;100176.03;5090718;28;20521;-53
2021/11/25 11:11:30;;;;;;;18.67;13.82;;;;;;;5.55;76.71;100176.03;5087195;28;20110;-54
2021/11/25 11:14:18;;;;;;;19.08;14.77;;;;;;;5.55;76.74;100176.94;5087484;28;20028;-52
2021/11/25 11:16:54;;;;;;;16.55;13.00;;;;;;;5.55;76.69;100176.94;5086524;28;20368;-52
2021/11/25 11:19:19;;;;;;;15.63;12.35;;;;;;;5.54;76.94;100169.94;5088118;28;20078;-52